Terminal Aerodrome Forecast
Issued by NWS Charleston, WV

Home | Current Version | Previous Version | Text Only | Print | Product List | Glossary On
Versions: 1 2 3 4 5 6 7 8 9 10 11 12 13 14 15 16 17 18 19 20 21
000
FTUS41 KRLX 311737
TAFHTS
TAF
KHTS 311737Z 3118/0118 VRB05KT P6SM FEW045
     FM010600 00000KT 4SM BR SCT040
     FM010800 00000KT 1/4SM FG VV001
     FM011200 00000KT 3SM BR SCT050
     FM011300 00000KT P6SM SCT050=

USA.gov is the U.S. government's official web portal to all federal, state and local government web resources and services.